Time;durP1;ratioP1;P1;durP2;ratioP2;P2;SDS_P1;SDS_P2;PMS_P1;PMS_P2;Temp;Humidity;BMP_temperature;BMP_pressure;BME280_temperature;BME280_humidity;BME280_pressure;Samples;Min_cycle;Max_cycle;Signal;HPM_P1;HPM_P2
2021/01/02 00:02:04;;;;;;;0.82;0.55;;;15.60;72.70;;;;;;4213545;28;20458;-39
2021/01/02 00:04:58;;;;;;;0.63;0.47;;;15.70;72.10;;;;;;4213551;28;20056;-40
2021/01/02 00:07:47;;;;;;;2.00;1.38;;;15.80;71.80;;;;;;4212944;28;20494;-40
2021/01/02 00:10:11;;;;;;;0.20;0.20;;;15.80;71.50;;;;;;4211956;28;20101;-40
2021/01/02 00:12:54;;;;;;;0.00;0.00;;;15.80;71.60;;;;;;4213419;28;20123;-40
2021/01/02 00:15:22;;;;;;;0.05;0.05;;;15.70;71.80;;;;;;4213248;28;20134;-40
2021/01/02 00:18:15;;;;;;;4.38;0.80;;;15.80;71.90;;;;;;4212435;28;20044;-41
2021/01/02 00:21:00;;;;;;;0.45;0.45;;;15.90;71.20;;;;;;4212934;28;20055;-41
2021/01/02 00:23:46;;;;;;;0.00;0.00;;;16.00;70.80;;;;;;4213097;28;20060;-41
2021/01/02 00:26:16;;;;;;;0.20;0.20;;;16.00;70.40;;;;;;4189977;28;20044;-40
2021/01/02 00:28:42;;;;;;;0.00;0.00;;;16.00;70.30;;;;;;4212814;28;20060;-40
2021/01/02 00:31:33;;;;;;;0.30;0.30;;;16.00;70.30;;;;;;4213130;28;20845;-41
2021/01/02 00:34:30;;;;;;;0.20;0.20;;;16.00;70.30;;;;;;4213053;28;20051;-40
2021/01/02 00:37:02;;;;;;;0.25;0.25;;;15.90;70.60;;;;;;4213110;28;20052;-40
2021/01/02 00:39:32;;;;;;;0.00;0.00;;;15.90;70.90;;;;;;4212935;28;20200;-40
2021/01/02 00:41:54;;;;;;;0.22;0.22;;;15.80;71.00;;;;;;4212790;28;20055;-41
2021/01/02 00:44:15;;;;;;;0.10;0.10;;;15.80;71.10;;;;;;4212746;28;20048;-40
2021/01/02 00:46:36;;;;;;;0.00;0.00;;;15.80;71.00;;;;;;4212282;28;20109;-40
2021/01/02 00:48:58;;;;;;;0.00;0.00;;;15.80;71.20;;;;;;4213226;28;20544;-40
2021/01/02 00:51:21;;;;;;;1.30;1.08;;;15.80;71.40;;;;;;4211347;28;20502;-40
2021/01/02 00:53:52;;;;;;;0.00;0.00;;;15.70;71.70;;;;;;4211745;28;20051;-40
2021/01/02 00:56:29;;;;;;;;;;;15.60;72.00;;;;;;4212774;28;20047;-41
2021/01/02 00:59:49;;;;;;;0.00;0.00;;;15.70;72.10;;;;;;4211207;28;19928;-40
2021/01/02 01:02:56;;;;;;;0.00;0.00;;;16.00;70.90;;;;;;4211577;28;20052;-40
2021/01/02 01:05:21;;;;;;;0.00;0.00;;;16.20;69.50;;;;;;4212508;28;20085;-40
2021/01/02 01:07:51;;;;;;;0.20;0.20;;;16.30;69.10;;;;;;4206822;28;20051;-41
2021/01/02 01:10:13;;;;;;;0.10;0.10;;;16.30;69.00;;;;;;4212345;28;20058;-40
2021/01/02 01:12:42;;;;;;;0.00;0.00;;;16.30;69.10;;;;;;4212540;28;20056;-40
2021/01/02 01:15:04;;;;;;;0.55;0.55;;;16.30;69.00;;;;;;4212350;28;20557;-40
2021/01/02 01:17:32;;;;;;;0.82;0.80;;;16.40;68.50;;;;;;4196080;28;20490;-40
2021/01/02 01:19:57;;;;;;;0.05;0.05;;;16.40;68.20;;;;;;4195614;28;20056;-40
2021/01/02 01:22:26;;;;;;;0.55;0.55;;;16.60;68.00;;;;;;4195887;28;20562;-40
2021/01/02 01:24:57;;;;;;;0.20;0.20;;;16.60;67.40;;;;;;4196064;28;20048;-40
2021/01/02 01:27:28;;;;;;;0.00;0.00;;;16.70;67.10;;;;;;4211077;28;20051;-40
2021/01/02 01:29:58;;;;;;;5.18;0.85;;;16.70;67.10;;;;;;4212013;28;20083;-40
2021/01/02 01:32:21;;;;;;;0.03;0.03;;;16.60;67.40;;;;;;4212614;28;20063;-40
2021/01/02 01:34:46;;;;;;;0.00;0.00;;;16.50;67.80;;;;;;4212167;28;20476;-40
2021/01/02 01:37:08;;;;;;;4.20;1.88;;;16.40;68.30;;;;;;4211923;28;20128;-41
2021/01/02 01:39:31;;;;;;;0.10;0.10;;;16.40;68.40;;;;;;4212162;28;20445;-40
2021/01/02 01:42:00;;;;;;;0.85;0.85;;;16.40;68.30;;;;;;4212107;28;20159;-40
2021/01/02 01:44:43;;;;;;;0.30;0.20;;;16.50;68.20;;;;;;4212237;28;20073;-40
2021/01/02 01:47:12;;;;;;;0.00;0.00;;;16.50;67.90;;;;;;4211014;28;20048;-40
2021/01/02 01:50:14;;;;;;;0.10;0.10;;;16.50;68.00;;;;;;4212127;28;20052;-40
2021/01/02 01:52:51;;;;;;;0.00;0.00;;;16.60;67.40;;;;;;4195400;28;20428;-40
2021/01/02 01:55:18;;;;;;;2.72;1.30;;;16.80;66.60;;;;;;4195538;28;20056;-40
2021/01/02 01:57:41;;;;;;;0.03;0.03;;;16.90;66.20;;;;;;4207404;28;20161;-40
2021/01/02 02:00:11;;;;;;;0.00;0.00;;;16.90;66.00;;;;;;4211767;28;20068;-40
2021/01/02 02:03:02;;;;;;;0.22;0.22;;;16.90;66.10;;;;;;4211959;28;20058;-40
2021/01/02 02:05:24;;;;;;;;;;;16.80;66.50;;;;;;4212708;28;20757;-40
2021/01/02 02:07:54;;;;;;;0.00;0.00;;;16.60;66.90;;;;;;4212117;28;19927;-41
2021/01/02 02:10:26;;;;;;;0.10;0.10;;;16.50;67.50;;;;;;4211961;28;20552;-40
2021/01/02 02:12:53;;;;;;;0.00;0.00;;;16.40;68.10;;;;;;4215202;28;20127;-41
2021/01/02 02:15:21;;;;;;;0.10;0.10;;;16.30;68.60;;;;;;4215243;28;20056;-40
2021/01/02 02:17:44;;;;;;;0.40;0.40;;;16.20;69.10;;;;;;4215674;28;20109;-42
2021/01/02 02:20:08;;;;;;;0.10;0.10;;;16.20;70.20;;;;;;4215301;28;20056;-41
2021/01/02 02:22:34;;;;;;;0.00;0.00;;;16.40;68.70;;;;;;4215041;28;20048;-40
2021/01/02 02:24:56;;;;;;;0.00;0.00;;;16.50;68.00;;;;;;4214781;28;20059;-40
2021/01/02 02:27:24;;;;;;;0.20;0.20;;;16.50;67.70;;;;;;4214720;28;20564;-40
2021/01/02 02:30:03;;;;;;;0.00;0.00;;;16.60;67.60;;;;;;4214102;28;20068;-40
2021/01/02 02:32:26;;;;;;;0.10;0.10;;;16.50;67.50;;;;;;4214167;28;20453;-40
2021/01/02 02:34:47;;;;;;;0.00;0.00;;;16.50;67.80;;;;;;4215422;28;20513;-40
2021/01/02 02:37:08;;;;;;;0.22;0.22;;;16.40;68.20;;;;;;4213229;28;20406;-40
2021/01/02 02:39:29;;;;;;;0.17;0.17;;;16.50;68.00;;;;;;4214887;28;20059;-41
2021/01/02 02:41:52;;;;;;;0.00;0.00;;;16.60;67.20;;;;;;4214792;28;20548;-42
2021/01/02 02:44:17;;;;;;;0.22;0.22;;;16.80;66.60;;;;;;4214185;28;20066;-40
2021/01/02 02:46:43;;;;;;;0.00;0.00;;;16.90;66.20;;;;;;4214225;28;20051;-40
2021/01/02 02:49:07;;;;;;;1.00;0.35;;;16.90;66.00;;;;;;4215010;28;20517;-40
2021/01/02 02:51:32;;;;;;;0.03;0.03;;;16.80;66.20;;;;;;4214105;28;20052;-40
2021/01/02 02:53:53;;;;;;;0.00;0.00;;;16.80;66.50;;;;;;4213951;28;20059;-40
2021/01/02 02:56:14;;;;;;;0.85;0.63;;;16.80;66.50;;;;;;4214373;28;20048;-40
2021/01/02 02:58:35;;;;;;;0.00;0.00;;;16.80;66.40;;;;;;4214398;28;20493;-40
2021/01/02 03:00:56;;;;;;;0.08;0.08;;;16.80;66.70;;;;;;4214290;28;20109;-40
2021/01/02 03:03:18;;;;;;;0.15;0.15;;;16.60;66.90;;;;;;4213966;28;20101;-40
2021/01/02 03:05:40;;;;;;;0.03;0.03;;;16.60;67.40;;;;;;4214480;28;20402;-40
2021/01/02 03:08:01;;;;;;;0.00;0.00;;;16.50;68.00;;;;;;4214287;28;20056;-40
2021/01/02 03:10:23;;;;;;;0.00;0.00;;;16.50;68.00;;;;;;4214734;28;20535;-40
2021/01/02 03:12:45;;;;;;;0.08;0.08;;;16.60;67.40;;;;;;4214215;28;20044;-40
2021/01/02 03:15:08;;;;;;;0.08;0.08;;;16.70;66.90;;;;;;4214247;28;20052;-40
2021/01/02 03:17:29;;;;;;;0.00;0.00;;;16.70;66.80;;;;;;4214456;28;20498;-40
2021/01/02 03:19:50;;;;;;;0.08;0.08;;;16.70;67.00;;;;;;4213966;28;20044;-40
2021/01/02 03:22:11;;;;;;;0.20;0.20;;;16.70;66.90;;;;;;4200286;28;20218;-40
2021/01/02 03:24:32;;;;;;;0.38;0.38;;;16.80;66.70;;;;;;4214085;28;20090;-40
2021/01/02 03:26:53;;;;;;;0.00;0.00;;;16.70;66.70;;;;;;4212735;28;20192;-40
2021/01/02 03:29:14;;;;;;;0.10;0.10;;;16.70;67.10;;;;;;4213965;28;20051;-40
2021/01/02 03:31:35;;;;;;;0.00;0.00;;;16.70;67.10;;;;;;4213875;28;20052;-40
2021/01/02 03:33:56;;;;;;;0.00;0.00;;;16.90;66.20;;;;;;4214533;28;20764;-40
2021/01/02 03:36:18;;;;;;;0.00;0.00;;;17.10;65.30;;;;;;4213732;28;20086;-41
2021/01/02 03:38:40;;;;;;;1.23;1.23;;;17.30;64.60;;;;;;4213900;28;20533;-41
2021/01/02 03:41:01;;;;;;;0.00;0.00;;;17.30;64.40;;;;;;4213560;28;20048;-41
2021/01/02 03:43:24;;;;;;;0.98;0.65;;;17.20;64.50;;;;;;4213931;28;20114;-41
2021/01/02 03:45:45;;;;;;;0.00;0.00;;;17.10;64.90;;;;;;4213544;28;20118;-41
2021/01/02 03:48:06;;;;;;;0.70;0.65;;;17.00;66.30;;;;;;4213710;28;20062;-40
2021/01/02 03:50:28;;;;;;;0.20;0.20;;;16.90;65.90;;;;;;4213405;28;20186;-40
2021/01/02 03:52:49;;;;;;;1.10;1.10;;;16.90;66.10;;;;;;4214007;28;20131;-40
2021/01/02 03:55:11;;;;;;;0.00;0.00;;;16.90;65.90;;;;;;4213606;28;20051;-41
2021/01/02 03:57:31;;;;;;;;;;;16.90;65.70;;;;;;4214410;28;20048;-42
2021/01/02 03:59:52;;;;;;;0.00;0.00;;;16.90;65.90;;;;;;4213269;28;20183;-40
2021/01/02 04:02:13;;;;;;;0.00;0.00;;;16.80;66.20;;;;;;4212501;28;20083;-40
2021/01/02 04:04:33;;;;;;;0.38;0.38;;;16.70;66.60;;;;;;4213210;28;20652;-40
2021/01/02 04:06:54;;;;;;;0.60;0.60;;;16.80;66.40;;;;;;4213415;28;20048;-40
2021/01/02 04:09:16;;;;;;;0.20;0.20;;;16.90;65.80;;;;;;4213327;28;20063;-41
2021/01/02 04:11:40;;;;;;;0.05;0.05;;;17.10;65.30;;;;;;4213098;28;20063;-41
2021/01/02 04:14:00;;;;;;;0.10;0.10;;;17.10;65.10;;;;;;4213738;28;20051;-40
2021/01/02 04:16:21;;;;;;;0.00;0.00;;;17.10;65.20;;;;;;4213189;28;20048;-40
2021/01/02 04:18:43;;;;;;;0.00;0.00;;;17.00;65.50;;;;;;4213470;28;20048;-40
2021/01/02 04:21:04;;;;;;;0.00;0.00;;;16.90;65.90;;;;;;4212704;28;20048;-40
2021/01/02 04:23:25;;;;;;;0.00;0.00;;;17.10;65.30;;;;;;4212892;28;20047;-40
2021/01/02 04:25:47;;;;;;;0.55;0.55;;;17.30;64.60;;;;;;4213070;28;20197;-40
2021/01/02 04:28:10;;;;;;;0.85;0.85;;;17.30;64.10;;;;;;4212747;28;20048;-40
2021/01/02 04:30:30;;;;;;;0.10;0.10;;;17.30;64.20;;;;;;4212880;28;20395;-40
2021/01/02 04:32:51;;;;;;;0.20;0.20;;;17.20;64.40;;;;;;4213452;28;20052;-40
2021/01/02 04:35:13;;;;;;;0.00;0.00;;;17.10;64.90;;;;;;4212888;28;20052;-40
2021/01/02 04:37:34;;;;;;;0.00;0.00;;;17.00;65.20;;;;;;4212946;28;20052;-40
2021/01/02 04:39:55;;;;;;;0.10;0.10;;;16.90;65.60;;;;;;4212866;28;20125;-40
2021/01/02 04:42:17;;;;;;;0.68;0.68;;;17.00;65.30;;;;;;4212613;28;20047;-40
2021/01/02 04:44:39;;;;;;;0.00;0.00;;;17.10;64.90;;;;;;4212772;28;20058;-41
2021/01/02 04:47:02;;;;;;;0.15;0.15;;;17.20;64.70;;;;;;4212878;28;20113;-40
2021/01/02 04:49:23;;;;;;;1.45;1.13;;;17.10;65.70;;;;;;4212314;28;20060;-41
2021/01/02 04:51:44;;;;;;;0.30;0.30;;;17.00;65.10;;;;;;4212604;28;20067;-39
2021/01/02 04:54:06;;;;;;;0.10;0.10;;;16.90;65.60;;;;;;4211427;28;20058;-40
2021/01/02 04:56:28;;;;;;;0.13;0.13;;;16.80;66.00;;;;;;4212564;28;20494;-40
2021/01/02 04:58:49;;;;;;;0.00;0.00;;;16.90;65.90;;;;;;4213177;28;20048;-40
2021/01/02 05:01:12;;;;;;;0.57;0.57;;;17.00;65.20;;;;;;4212757;28;20052;-40
2021/01/02 05:03:35;;;;;;;0.00;0.00;;;17.10;64.90;;;;;;4195822;28;20071;-40
2021/01/02 05:05:56;;;;;;;0.00;0.00;;;17.10;64.90;;;;;;4212051;28;20062;-40
2021/01/02 05:08:17;;;;;;;0.00;0.00;;;17.00;65.20;;;;;;4212864;28;20052;-40
2021/01/02 05:10:38;;;;;;;0.00;0.00;;;16.80;65.60;;;;;;4213013;28;20087;-40
2021/01/02 05:13:10;;;;;;;0.00;0.00;;;16.80;67.00;;;;;;4212966;28;20127;-40
2021/01/02 05:15:32;;;;;;;0.00;0.00;;;16.60;66.60;;;;;;4212608;28;20059;-40
2021/01/02 05:17:54;;;;;;;1.17;0.70;;;16.50;67.20;;;;;;4212414;28;20056;-40
2021/01/02 05:20:15;;;;;;;;;;;16.50;68.40;;;;;;4212591;28;20067;-40
2021/01/02 05:22:37;;;;;;;0.00;0.00;;;16.70;66.60;;;;;;4212592;28;19973;-40
2021/01/02 05:25:04;;;;;;;;;;;17.00;65.30;;;;;;4212735;28;20048;-40
2021/01/02 05:27:31;;;;;;;0.00;0.00;;;17.20;64.30;;;;;;4212379;28;20362;-40
2021/01/02 05:29:52;;;;;;;0.10;0.10;;;17.40;63.60;;;;;;4212299;28;20060;-40
2021/01/02 05:32:14;;;;;;;0.38;0.38;;;17.40;63.30;;;;;;4211907;28;20064;-40
2021/01/02 05:34:35;;;;;;;0.00;0.00;;;17.40;63.50;;;;;;4212308;28;20040;-40
2021/01/02 05:36:59;;;;;;;0.25;0.25;;;17.30;63.60;;;;;;4212190;28;20063;-40
2021/01/02 05:39:33;;;;;;;0.52;0.52;;;17.20;64.00;;;;;;4212576;28;20074;-40
2021/01/02 05:41:55;;;;;;;0.00;0.00;;;17.00;64.60;;;;;;4212344;28;20526;-40
2021/01/02 05:44:17;;;;;;;0.00;0.00;;;16.90;65.20;;;;;;4211858;28;20576;-40
2021/01/02 05:46:45;;;;;;;0.00;0.00;;;16.70;65.90;;;;;;4216010;28;20494;-40
2021/01/02 05:49:31;;;;;;;0.00;0.00;;;16.60;66.50;;;;;;4215504;28;20055;-40
2021/01/02 05:51:56;;;;;;;0.00;0.00;;;16.70;66.60;;;;;;4215676;28;20575;-40
2021/01/02 05:54:19;;;;;;;0.00;0.00;;;16.70;66.00;;;;;;4215314;28;20056;-40
2021/01/02 05:56:46;;;;;;;0.00;0.00;;;16.90;65.40;;;;;;4215681;28;20779;-40
2021/01/02 05:59:07;;;;;;;0.00;0.00;;;17.00;65.00;;;;;;4215449;28;20072;-40
2021/01/02 06:01:28;;;;;;;0.55;0.30;;;17.20;64.20;;;;;;4215280;28;20143;-40
2021/01/02 06:03:50;;;;;;;0.20;0.20;;;17.40;63.30;;;;;;4202345;28;20048;-40
2021/01/02 06:06:14;;;;;;;0.10;0.10;;;17.50;62.70;;;;;;4212971;28;20134;-40
2021/01/02 06:08:37;;;;;;;0.00;0.00;;;17.50;62.60;;;;;;4215897;28;20143;-40
2021/01/02 06:11:00;;;;;;;0.17;0.17;;;17.50;62.90;;;;;;4215282;28;20194;-40
2021/01/02 06:13:23;;;;;;;0.10;0.10;;;17.30;63.30;;;;;;4215156;28;20062;-40
2021/01/02 06:15:44;;;;;;;1.00;1.00;;;17.20;63.80;;;;;;4214903;28;20138;-40
2021/01/02 06:18:05;;;;;;;;;;;17.00;64.40;;;;;;4215650;28;20055;-40
2021/01/02 06:20:26;;;;;;;0.00;0.00;;;16.90;65.00;;;;;;4214894;28;20303;-40
2021/01/02 06:22:50;;;;;;;0.43;0.43;;;16.80;65.40;;;;;;4215332;28;20059;-40
2021/01/02 06:25:13;;;;;;;0.40;0.40;;;16.80;65.40;;;;;;4214713;28;20056;-40
2021/01/02 06:27:38;;;;;;;0.00;0.00;;;16.80;65.50;;;;;;4215063;28;20410;-40
2021/01/02 06:30:00;;;;;;;0.00;0.00;;;16.70;65.60;;;;;;4214717;28;20456;-40
2021/01/02 06:32:23;;;;;;;0.10;0.10;;;16.70;66.00;;;;;;4214954;28;20518;-40
2021/01/02 06:34:44;;;;;;;0.00;0.00;;;16.60;66.00;;;;;;4214699;28;20067;-40
2021/01/02 06:37:05;;;;;;;0.00;0.00;;;16.70;65.70;;;;;;4214989;28;20056;-40
2021/01/02 06:39:27;;;;;;;0.00;0.00;;;16.90;65.10;;;;;;4215341;28;20518;-40
2021/01/02 06:41:49;;;;;;;0.30;0.30;;;16.90;65.00;;;;;;4214745;28;20133;-40
2021/01/02 06:44:10;;;;;;;0.20;0.20;;;16.90;65.10;;;;;;4214575;28;20506;-40
2021/01/02 06:46:34;;;;;;;0.00;0.00;;;16.80;65.20;;;;;;4214642;28;20060;-40
2021/01/02 06:48:55;;;;;;;0.00;0.00;;;16.80;65.20;;;;;;4214884;28;20524;-41
2021/01/02 06:51:30;;;;;;;0.00;0.00;;;17.10;64.60;;;;;;4214572;28;20079;-40
2021/01/02 06:53:51;;;;;;;0.10;0.10;;;17.40;63.30;;;;;;4214275;28;20044;-42
2021/01/02 06:56:15;;;;;;;;;;;17.50;62.60;;;;;;4215051;28;20052;-40
2021/01/02 06:58:38;;;;;;;0.00;0.00;;;17.50;62.50;;;;;;4214330;28;19958;-40
2021/01/02 07:00:59;;;;;;;0.00;0.00;;;17.40;62.80;;;;;;4214419;28;20495;-40
2021/01/02 07:03:42;;;;;;;0.00;0.00;;;17.30;63.30;;;;;;4197666;28;20045;-40
2021/01/02 07:06:20;;;;;;;2.53;1.30;;;17.10;64.00;;;;;;4198036;28;20048;-40
2021/01/02 07:08:42;;;;;;;0.30;0.30;;;17.00;64.90;;;;;;4198771;28;20076;-41
2021/01/02 07:11:24;;;;;;;0.13;0.13;;;17.00;64.90;;;;;;4213831;28;20060;-41
2021/01/02 07:13:44;;;;;;;0.00;0.00;;;17.10;64.50;;;;;;4214303;28;20052;-39
2021/01/02 07:16:28;;;;;;;0.00;0.00;;;17.20;64.50;;;;;;4197113;28;20063;-40
2021/01/02 07:18:49;;;;;;;0.00;0.00;;;17.10;64.60;;;;;;4199092;28;20110;-41
2021/01/02 07:21:32;;;;;;;0.00;0.00;;;17.00;65.80;;;;;;4214271;28;20058;-41
2021/01/02 07:23:53;;;;;;;0.05;0.05;;;16.90;65.90;;;;;;4214483;28;20082;-41
2021/01/02 07:26:24;;;;;;;0.10;0.10;;;16.80;66.20;;;;;;4197735;28;20080;-41
2021/01/02 07:28:52;;;;;;;0.15;0.15;;;16.70;66.50;;;;;;4197660;28;20059;-41
2021/01/02 07:31:13;;;;;;;1.25;0.55;;;16.50;66.80;;;;;;4199755;28;20088;-41
2021/01/02 07:33:38;;;;;;;0.00;0.00;;;16.40;67.10;;;;;;4213065;28;20050;-41
2021/01/02 07:35:59;;;;;;;15.15;0.73;;;16.30;67.50;;;;;;4214148;28;20407;-41
2021/01/02 07:38:20;;;;;;;0.60;0.60;;;16.40;67.40;;;;;;4214280;28;20059;-41
2021/01/02 07:40:41;;;;;;;0.05;0.05;;;16.50;66.50;;;;;;4213989;28;20517;-43
2021/01/02 07:43:03;;;;;;;0.20;0.20;;;16.70;65.50;;;;;;4197407;28;20135;-40
2021/01/02 07:45:26;;;;;;;0.00;0.00;;;16.90;64.80;;;;;;4197328;28;20055;-41
2021/01/02 07:47:49;;;;;;;0.52;0.52;;;17.10;63.70;;;;;;4197337;28;20477;-41
2021/01/02 07:50:11;;;;;;;1.25;1.15;;;17.30;62.60;;;;;;4210262;28;20135;-41
2021/01/02 07:52:32;;;;;;;0.00;0.00;;;17.40;61.90;;;;;;4212835;28;20063;-41
2021/01/02 07:54:54;;;;;;;0.00;0.00;;;17.40;61.80;;;;;;4213989;28;20066;-41
2021/01/02 07:57:22;;;;;;;;;;;17.40;61.90;;;;;;4213998;28;20050;-41
2021/01/02 07:59:44;;;;;;;0.10;0.10;;;17.30;62.10;;;;;;4213662;28;19936;-42
2021/01/02 08:02:20;;;;;;;0.45;0.45;;;17.20;62.60;;;;;;4213470;28;20059;-41
2021/01/02 08:04:41;;;;;;;0.08;0.08;;;17.20;62.50;;;;;;4213308;28;20141;-41
2021/01/02 08:07:05;;;;;;;0.25;0.25;;;17.20;62.10;;;;;;4213672;28;20112;-41
2021/01/02 08:09:26;;;;;;;0.00;0.00;;;17.20;62.00;;;;;;4212007;28;20093;-40
2021/01/02 08:11:55;;;;;;;0.10;0.10;;;17.20;62.20;;;;;;4213520;28;20055;-40
2021/01/02 08:14:16;;;;;;;0.10;0.10;;;17.10;62.30;;;;;;4212800;28;20059;-40
2021/01/02 08:16:38;;;;;;;0.30;0.30;;;17.10;62.10;;;;;;4213572;28;20062;-40
2021/01/02 08:19:08;;;;;;;0.63;0.63;;;17.10;62.10;;;;;;4212938;28;20093;-41
2021/01/02 08:21:29;;;;;;;0.30;0.30;;;17.20;61.90;;;;;;4212616;28;20113;-40
2021/01/02 08:23:50;;;;;;;0.00;0.00;;;17.10;61.80;;;;;;4213645;28;20052;-41
2021/01/02 08:26:11;;;;;;;0.38;0.38;;;17.00;61.80;;;;;;4213814;28;20047;-41
2021/01/02 08:28:31;;;;;;;0.95;0.95;;;16.90;62.30;;;;;;4209162;28;20094;-41
2021/01/02 08:30:52;;;;;;;0.25;0.20;;;16.90;62.70;;;;;;4212819;28;20056;-43
2021/01/02 08:33:15;;;;;;;0.10;0.10;;;16.90;62.60;;;;;;4212911;28;20066;-41
2021/01/02 08:35:38;;;;;;;0.55;0.55;;;16.90;62.50;;;;;;4196098;28;20049;-42
2021/01/02 08:38:04;;;;;;;0.00;0.00;;;16.80;62.60;;;;;;4196149;28;20060;-41
2021/01/02 08:40:25;;;;;;;0.57;0.57;;;16.90;62.50;;;;;;4196858;28;20063;-41
2021/01/02 08:42:47;;;;;;;0.22;0.22;;;16.90;62.10;;;;;;4212842;28;20460;-41
2021/01/02 08:45:10;;;;;;;0.00;0.00;;;16.90;62.10;;;;;;4212105;28;20050;-41
2021/01/02 08:47:31;;;;;;;0.10;0.10;;;16.90;62.20;;;;;;4213129;28;20486;-40
2021/01/02 08:49:53;;;;;;;0.00;0.00;;;16.80;62.50;;;;;;4212695;28;20489;-40
2021/01/02 08:52:20;;;;;;;0.10;0.10;;;16.80;62.40;;;;;;4212642;28;20059;-40
2021/01/02 08:54:40;;;;;;;0.10;0.10;;;16.80;62.30;;;;;;4212767;28;20101;-40
2021/01/02 08:57:01;;;;;;;0.00;0.00;;;16.80;62.40;;;;;;4213241;28;20051;-40
2021/01/02 08:59:22;;;;;;;0.10;0.10;;;16.80;62.40;;;;;;4212733;28;20490;-40
2021/01/02 09:01:44;;;;;;;0.38;0.38;;;16.70;62.60;;;;;;4212377;28;20060;-40
2021/01/02 09:04:11;;;;;;;0.05;0.05;;;16.60;62.80;;;;;;4211512;28;20056;-42
2021/01/02 09:06:33;;;;;;;0.70;0.68;;;16.50;63.00;;;;;;4212675;28;20503;-40
2021/01/02 09:09:01;;;;;;;0.10;0.10;;;16.60;62.50;;;;;;4212204;28;20051;-39
2021/01/02 09:11:21;;;;;;;0.63;0.63;;;16.50;62.40;;;;;;4212953;28;20052;-40
2021/01/02 09:13:42;;;;;;;0.20;0.20;;;16.50;62.20;;;;;;4212485;28;20055;-40
2021/01/02 09:16:05;;;;;;;0.00;0.00;;;16.50;61.70;;;;;;4212744;28;20055;-39
2021/01/02 09:18:40;;;;;;;0.10;0.10;;;16.30;62.10;;;;;;4212056;28;20044;-39
2021/01/02 09:21:23;;;;;;;0.13;0.13;;;16.20;62.90;;;;;;4212437;28;20056;-40
2021/01/02 09:23:54;;;;;;;0.50;0.50;;;16.00;63.60;;;;;;4212174;28;20135;-40
2021/01/02 09:26:21;;;;;;;1.10;0.68;;;15.90;64.10;;;;;;4213317;28;20052;-39
2021/01/02 09:28:43;;;;;;;3.10;1.42;;;15.90;64.70;;;;;;4212581;28;20150;-39
2021/01/02 09:31:04;;;;;;;0.75;0.52;;;15.80;65.00;;;;;;4210914;28;20064;-39
2021/01/02 09:33:25;;;;;;;0.45;0.45;;;15.70;65.30;;;;;;4211479;28;20056;-39
2021/01/02 09:35:47;;;;;;;0.00;0.00;;;15.60;65.80;;;;;;4210821;28;20101;-40
2021/01/02 09:38:09;;;;;;;1.35;1.05;;;15.50;66.00;;;;;;4212073;28;20060;-40
2021/01/02 09:40:31;;;;;;;4.03;1.75;;;15.40;66.20;;;;;;4211963;28;20052;-40
2021/01/02 09:42:52;;;;;;;0.00;0.00;;;15.40;66.50;;;;;;4211947;28;20052;-40
2021/01/02 09:45:15;;;;;;;0.10;0.10;;;15.30;66.60;;;;;;4212077;28;20062;-40
2021/01/02 09:47:37;;;;;;;0.22;0.22;;;15.20;66.80;;;;;;4212396;28;20577;-39
2021/01/02 09:50:01;;;;;;;0.05;0.05;;;15.20;67.10;;;;;;4211055;28;20078;-39
2021/01/02 09:52:21;;;;;;;0.00;0.00;;;15.30;66.60;;;;;;4211857;28;20155;-40
2021/01/02 09:54:42;;;;;;;4.68;1.85;;;15.50;65.80;;;;;;4212119;28;20116;-40
2021/01/02 09:57:04;;;;;;;0.20;0.20;;;15.60;65.20;;;;;;4195840;28;20059;-40
2021/01/02 09:59:25;;;;;;;0.10;0.10;;;15.70;64.80;;;;;;4195334;28;20461;-41
2021/01/02 10:01:45;;;;;;;1.45;0.65;;;15.70;64.70;;;;;;4206637;28;20044;-39
2021/01/02 10:04:07;;;;;;;0.50;0.50;;;15.80;64.20;;;;;;4203582;28;20105;-40
2021/01/02 10:06:27;;;;;;;0.00;0.00;;;16.30;62.50;;;;;;4212518;28;20447;-40
2021/01/02 10:08:48;;;;;;;0.10;0.10;;;16.90;60.00;;;;;;4211563;28;20055;-40
2021/01/02 10:11:09;;;;;;;5.78;2.20;;;17.50;58.10;;;;;;4211736;28;20059;-40
2021/01/02 10:13:31;;;;;;;0.85;0.85;;;18.10;56.10;;;;;;4211922;28;20516;-40
2021/01/02 10:15:51;;;;;;;0.70;0.70;;;18.70;54.70;;;;;;4211786;28;20052;-40
2021/01/02 10:18:13;;;;;;;1.17;1.17;;;19.20;53.30;;;;;;4212154;28;20058;-40
2021/01/02 10:20:35;;;;;;;0.08;0.05;;;19.50;52.10;;;;;;4211724;28;20085;-41
2021/01/02 10:22:56;;;;;;;0.10;0.10;;;19.80;51.60;;;;;;4211908;28;20048;-40
2021/01/02 10:25:18;;;;;;;0.00;0.00;;;19.80;51.50;;;;;;4212370;28;20954;-40
2021/01/02 10:27:39;;;;;;;0.30;0.30;;;19.80;51.50;;;;;;4211737;28;20052;-41
2021/01/02 10:30:01;;;;;;;0.00;0.00;;;19.80;51.70;;;;;;4211686;28;20522;-40
2021/01/02 10:32:24;;;;;;;0.00;0.00;;;19.70;51.70;;;;;;4213401;28;20097;-40
2021/01/02 10:34:46;;;;;;;0.22;0.22;;;19.60;52.20;;;;;;4214661;28;20059;-40
2021/01/02 10:37:10;;;;;;;0.20;0.20;;;19.30;52.70;;;;;;4215351;28;20060;-40
2021/01/02 10:39:30;;;;;;;1.40;1.05;;;19.10;53.70;;;;;;4214820;28;20154;-40
2021/01/02 10:41:52;;;;;;;0.20;0.20;;;18.90;53.90;;;;;;4198251;28;20415;-40
2021/01/02 10:44:14;;;;;;;1.13;1.05;;;18.60;54.60;;;;;;4203764;28;20121;-40
2021/01/02 10:46:35;;;;;;;0.10;0.10;;;18.40;55.20;;;;;;4213981;28;20067;-40
2021/01/02 10:48:59;;;;;;;0.10;0.10;;;18.50;55.30;;;;;;4213127;28;20048;-40
2021/01/02 10:51:21;;;;;;;0.10;0.10;;;18.60;55.30;;;;;;4214339;28;20127;-41
2021/01/02 10:53:43;;;;;;;0.10;0.10;;;18.60;55.40;;;;;;4213577;28;20052;-40
2021/01/02 10:56:09;;;;;;;0.00;0.00;;;18.60;55.30;;;;;;4214381;28;20497;-41
2021/01/02 10:58:30;;;;;;;1.63;1.52;;;18.70;55.20;;;;;;4214019;28;20395;-40
2021/01/02 11:00:50;;;;;;;0.00;0.00;;;18.70;55.00;;;;;;4214997;28;20140;-40
2021/01/02 11:03:15;;;;;;;0.15;0.15;;;18.60;55.10;;;;;;4214691;28;20052;-41
2021/01/02 11:05:36;;;;;;;0.10;0.10;;;18.50;55.60;;;;;;4213622;28;20553;-40
2021/01/02 11:07:56;;;;;;;0.22;0.22;;;18.50;55.80;;;;;;4214057;28;20048;-41
2021/01/02 11:10:17;;;;;;;0.63;0.63;;;18.40;56.00;;;;;;4204597;28;20513;-41
2021/01/02 11:12:38;;;;;;;1.75;1.65;;;18.20;56.40;;;;;;4210977;28;20070;-40
2021/01/02 11:14:59;;;;;;;1.13;1.00;;;18.20;56.70;;;;;;4214350;28;20044;-41
2021/01/02 11:17:20;;;;;;;0.00;0.00;;;18.40;56.20;;;;;;4214845;28;20076;-41
2021/01/02 11:19:44;;;;;;;0.22;0.22;;;18.50;55.80;;;;;;4213109;28;20760;-40
2021/01/02 11:22:05;;;;;;;0.55;0.55;;;18.60;55.40;;;;;;4207747;28;20063;-41
2021/01/02 11:24:27;;;;;;;;;;;18.70;55.30;;;;;;4214408;28;20464;-41
2021/01/02 11:26:49;;;;;;;;;;;18.60;55.40;;;;;;4214169;28;19952;-40
2021/01/02 11:29:10;;;;;;;0.55;0.55;;;18.60;55.40;;;;;;4206117;28;19924;-41
2021/01/02 11:31:31;;;;;;;;;;;18.70;55.10;;;;;;4214055;28;20086;-41
2021/01/02 11:34:03;;;;;;;0.00;0.00;;;18.70;54.90;;;;;;4213118;28;20415;-41
2021/01/02 11:36:25;;;;;;;0.75;0.75;;;18.60;55.80;;;;;;4214164;28;20059;-41
2021/01/02 11:38:47;;;;;;;0.73;0.73;;;18.50;55.40;;;;;;4213776;28;20115;-41
2021/01/02 11:41:08;;;;;;;2.20;1.55;;;18.60;55.40;;;;;;4213411;28;20402;-41
2021/01/02 11:43:29;;;;;;;0.10;0.10;;;18.60;55.10;;;;;;4213926;28;20050;-40
2021/01/02 11:45:50;;;;;;;1.52;1.45;;;18.60;55.00;;;;;;4214107;28;20555;-41
2021/01/02 11:48:12;;;;;;;1.55;1.50;;;18.50;55.30;;;;;;4214017;28;20110;-41
2021/01/02 11:50:34;;;;;;;0.98;0.82;;;18.40;55.50;;;;;;4213286;28;20044;-40
2021/01/02 11:52:55;;;;;;;0.00;0.00;;;18.40;55.40;;;;;;4213162;28;20056;-41
2021/01/02 11:55:16;;;;;;;0.20;0.20;;;18.40;55.50;;;;;;4211846;28;20652;-40
2021/01/02 11:57:37;;;;;;;1.17;1.08;;;18.30;55.70;;;;;;4213695;28;20052;-39
2021/01/02 12:00:02;;;;;;;2.20;0.88;;;18.20;56.00;;;;;;4213183;28;20078;-41
2021/01/02 12:02:25;;;;;;;1.13;0.98;;;17.90;56.60;;;;;;4213729;28;20056;-41
2021/01/02 12:04:47;;;;;;;1.85;0.70;;;17.80;57.30;;;;;;4213815;28;20132;-40
2021/01/02 12:07:08;;;;;;;0.20;0.20;;;17.90;57.50;;;;;;4213753;28;20056;-40
2021/01/02 12:09:30;;;;;;;0.30;0.30;;;18.10;57.00;;;;;;4213176;28;20131;-40
2021/01/02 12:11:52;;;;;;;0.98;0.95;;;18.20;56.70;;;;;;4212945;28;20048;-39
2021/01/02 12:14:17;;;;;;;0.80;0.80;;;18.40;56.30;;;;;;4212013;28;20410;-42
2021/01/02 12:16:40;;;;;;;0.20;0.20;;;18.50;55.90;;;;;;4213316;28;20461;-42
2021/01/02 12:19:02;;;;;;;0.00;0.00;;;18.70;55.50;;;;;;4212891;28;20066;-41
2021/01/02 12:21:23;;;;;;;0.00;0.00;;;18.80;55.30;;;;;;4212859;28;20074;-41
2021/01/02 12:23:44;;;;;;;0.10;0.10;;;18.80;55.20;;;;;;4212610;28;20498;-42
2021/01/02 12:26:06;;;;;;;;;;;18.90;55.10;;;;;;4213601;28;20060;-41
2021/01/02 12:28:29;;;;;;;1.67;0.38;;;18.80;55.40;;;;;;4212727;28;20432;-42
2021/01/02 12:30:50;;;;;;;1.95;1.85;;;18.60;55.60;;;;;;4212457;28;20080;-42
2021/01/02 12:33:11;;;;;;;0.00;0.00;;;18.50;55.90;;;;;;4212742;28;20087;-42
2021/01/02 12:35:32;;;;;;;0.03;0.03;;;18.50;56.20;;;;;;4212939;28;20055;-39
2021/01/02 12:37:53;;;;;;;0.85;0.85;;;18.40;56.50;;;;;;4213020;28;20521;-40